Amherst Junction, Wisconsin
Current Conditions -  °F | °C
As of 8:55 PM on Friday 21 Nov 2014 (Local Time) from KSTE Reporting Station
Overcast Overcast  
Wind Chill: 13°   Ceiling: 1700
Heat Index: 24°   Visibility: 10mi
Dew Point: 10°   Wind: 13mph
Humidity: 54%   Direction: 190°S
Pressure: 30.04"   Gusts: NA
Location:  44.47°N, 89.31°W
Report Text: KSTE 220255Z AUTO 19011KT 10SM OVC017 M04/M12 A3004 RMK AO2 T10421123
Loading
Personal Weather Stations






























Interactive Weather Map New forecast layout! Learn more

10-Day Weather Forecast

Advertisements
Track Severe Weather on mobile